Terminal Aerodrome Forecast
Issued by NWS

Home | Current Version | Previous Version | Text Only | Print | Product List | Glossary On
Versions: 1 2 3 4 5 6 7 8 9 10 11
248
FTUS45 KRIW 102320
TAFRKS
TAF
KRKS 102320Z 1100/1124 26014G20KT P6SM SCT200
     FM110200 25011KT P6SM BKN200=

USA.gov is the U.S. government's official web portal to all federal, state and local government web resources and services.